Terminal Aerodrome Forecast
Issued by NWS Twin Cities, MN

Home | Current Version | Previous Version | Graphics & Text | Print | Product List | Glossary On
Versions: 1 2 3 4 5 6 7 8 9 10 11 12 13 14 15 16 17 18 19 20 21 22 23 24 25 26
123
FTUS43 KMPX 191120
TAFMSP
TAF
KMSP 191120Z 1912/2018 VRB02KT 5SM BR SKC
     FM191300 12005KT P6SM FEW050 SCT250
     FM200000 13009KT P6SM VCTS SCT060CB BKN250
      TEMPO 2001/2004 2SM TSRA BKN025CB OVC100
     FM200400 12008KT P6SM SCT025 BKN150
     FM200700 32005KT P6SM BKN015
     FM201400 03005KT P6SM SCT025=

USA.gov is the U.S. government's official web portal to all federal, state and local government web resources and services.